»·PEaware :: N9BR KMRY-KTVL

N9BR :: KMRY-KTVL

FLIGHT INFORMATION

Flight Status: Arrived
Operator: Privately registered:
United States
More flights under this callsign
Pilot: John H. (7647)
Aircraft: MOONEY M-20 201 202 205 220 ATS MSE
(M20P)
More flights by this aircraft type
Origin: KMRY Monterey Peninsula
United States
Destination: KTVL Lake Tahoe
United States
More flights between these airports :: More routes between these airports
Route: SNS V111 MOD V113 LIN HNW SWR KINGS
File this flight plan on PilotEdge
Remarks:
Altitude:
(Current/Filed)
11,500ft
Speed:
(Current/Filed)
180kts
Departed: 18-Aug-18 08:33 AM
Arrived: 18-Aug-18 09:50 AM
Distance/Time
Traveled:
164nm/1:17
Distance/Time
To Go:
Arrived

Flight Plot

Page will automatically refresh every two minutes.

Flight plan parsing failed; only flown route is shown


Map Options




Map Legend


Flown Route
Filed Route
Departure Airport
Arrival Airport
Navaid (VOR, NDB)
Fix

Horizontal Profiles

Position Reports

Time Latitude Longitude Heading Altitude Ground
Speed
18-Aug-18 08:20 36.587916 -121.840360 111 216ft 0kts
18-Aug-18 08:21 36.587916 -121.840360 111 216ft 0kts
18-Aug-18 08:22 36.587916 -121.840360 111 216ft 0kts
18-Aug-18 08:23 36.587916 -121.840360 111 216ft 0kts
18-Aug-18 08:24 36.587916 -121.840360 111 216ft 0kts
18-Aug-18 08:25 36.587916 -121.840360 111 216ft 0kts
18-Aug-18 08:26 36.587916 -121.840360 111 216ft 0kts
18-Aug-18 08:27 36.587916 -121.840360 111 216ft 0kts
18-Aug-18 08:28 36.587916 -121.840360 111 216ft 0kts
18-Aug-18 08:29 36.587916 -121.840360 111 216ft 0kts
18-Aug-18 08:30 36.587328 -121.839623 111 223ft 7kts
18-Aug-18 08:31 36.586248 -121.836469 112 237ft 15kts
18-Aug-18 08:32 36.585188 -121.833577 169 241ft 0kts
18-Aug-18 08:33 36.585181 -121.833576 172 241ft 0kts
18-Aug-18 08:34 36.585423 -121.835344 290 242ft 47kts
18-Aug-18 08:35 36.597149 -121.868590 294 842ft 135kts
18-Aug-18 08:36 36.629571 -121.863209 47 1995ft 152kts
18-Aug-18 08:37 36.623408 -121.816435 105 2944ft 160kts
18-Aug-18 08:38 36.617499 -121.766164 93 3939ft 158kts
18-Aug-18 08:39 36.627822 -121.715558 67 4862ft 160kts
18-Aug-18 08:40 36.643819 -121.666156 68 5760ft 161kts
18-Aug-18 08:41 36.659498 -121.617166 68 6763ft 154kts
18-Aug-18 08:42 36.691693 -121.585167 28 7580ft 156kts
18-Aug-18 08:43 36.729749 -121.559803 27 8402ft 158kts
18-Aug-18 08:44 36.766948 -121.535178 27 9106ft 160kts
18-Aug-18 08:45 36.805349 -121.509717 26 9840ft 156kts
18-Aug-18 08:46 36.843032 -121.484737 25 10382ft 161kts
18-Aug-18 08:47 36.882925 -121.458247 25 10945ft 166kts
18-Aug-18 08:48 36.924354 -121.430707 26 11442ft 175kts
18-Aug-18 08:49 36.968987 -121.401091 28 11457ft 188kts
18-Aug-18 08:50 37.014586 -121.370691 28 11478ft 191kts
18-Aug-18 08:51 37.060317 -121.340168 29 11499ft 191kts
18-Aug-18 08:52 37.105247 -121.310134 29 11550ft 192kts
18-Aug-18 08:53 37.147785 -121.281659 29 11542ft 193kts
18-Aug-18 08:54 37.193919 -121.250738 29 11546ft 193kts
18-Aug-18 08:55 37.239143 -121.220384 29 11492ft 196kts
18-Aug-18 08:56 37.286250 -121.188717 28 11490ft 195kts
18-Aug-18 08:57 37.333240 -121.157100 29 11492ft 195kts
18-Aug-18 08:58 37.380283 -121.125397 29 11492ft 195kts
18-Aug-18 08:59 37.427577 -121.093474 29 11492ft 195kts
18-Aug-18 09:00 37.473946 -121.062131 29 11493ft 195kts
18-Aug-18 09:01 37.521224 -121.030126 29 11493ft 196kts
18-Aug-18 09:02 37.566945 -120.999138 29 11493ft 196kts
18-Aug-18 09:03 37.610989 -120.969239 29 11493ft 196kts
18-Aug-18 09:04 37.663010 -120.962096 355 11493ft 196kts
18-Aug-18 09:05 37.716651 -120.967257 354 11493ft 195kts
18-Aug-18 09:06 37.769762 -120.972662 354 11497ft 195kts
18-Aug-18 09:07 37.823332 -120.978161 354 11493ft 196kts
18-Aug-18 09:08 37.877136 -120.983694 354 11494ft 196kts
18-Aug-18 09:09 37.931209 -120.989264 354 11494ft 196kts
18-Aug-18 09:10 37.984956 -120.994805 354 11494ft 196kts
18-Aug-18 09:11 38.038401 -121.000326 354 11572ft 194kts
18-Aug-18 09:12 38.091966 -120.997086 17 11506ft 197kts
18-Aug-18 09:13 38.137107 -120.979766 17 11573ft 195kts
18-Aug-18 09:14 38.186116 -120.960738 17 11573ft 196kts
18-Aug-18 09:15 38.234758 -120.941791 17 11572ft 196kts
18-Aug-18 09:16 38.283744 -120.922689 17 11576ft 196kts
18-Aug-18 09:17 38.333289 -120.903337 17 11573ft 196kts
18-Aug-18 09:18 38.383124 -120.883847 17 11573ft 197kts
18-Aug-18 09:19 38.433393 -120.864164 17 11626ft 195kts
18-Aug-18 09:20 38.482598 -120.844852 17 11628ft 196kts
18-Aug-18 09:21 38.533434 -120.824975 17 11628ft 197kts
18-Aug-18 09:22 38.579107 -120.807037 17 11627ft 197kts
18-Aug-18 09:23 38.630076 -120.786963 17 11629ft 197kts
18-Aug-18 09:24 38.681190 -120.766789 17 11628ft 198kts
18-Aug-18 09:25 38.732356 -120.741160 39 11499ft 200kts
18-Aug-18 09:26 38.775130 -120.696891 40 11484ft 198kts
18-Aug-18 09:27 38.816466 -120.653672 40 11554ft 194kts
18-Aug-18 09:28 38.853875 -120.614420 39 11644ft 191kts
18-Aug-18 09:29 38.894293 -120.571894 39 11698ft 189kts
18-Aug-18 09:30 38.933987 -120.530162 40 11697ft 189kts
18-Aug-18 09:31 38.973832 -120.488211 39 11697ft 187kts
18-Aug-18 09:32 39.013352 -120.446543 39 11654ft 187kts
18-Aug-18 09:33 39.052030 -120.405701 40 11643ft 186kts
18-Aug-18 09:34 39.091301 -120.364168 38 11698ft 185kts
18-Aug-18 09:35 39.128376 -120.324903 39 11698ft 186kts
18-Aug-18 09:36 39.164702 -120.286378 39 11697ft 186kts
18-Aug-18 09:37 39.188214 -120.230315 75 11698ft 185kts
18-Aug-18 09:38 39.201157 -120.166442 75 11692ft 186kts
18-Aug-18 09:39 39.213916 -120.102635 75 11698ft 186kts
18-Aug-18 09:40 39.226689 -120.038595 75 11697ft 182kts
18-Aug-18 09:41 39.239208 -119.975602 74 11619ft 184kts
18-Aug-18 09:42 39.229202 -119.931311 171 11582ft 175kts
18-Aug-18 09:43 39.180204 -119.953464 244 11613ft 161kts
18-Aug-18 09:44 39.140738 -119.968127 184 11447ft 163kts
18-Aug-18 09:45 39.102085 -119.970350 180 10668ft 169kts
18-Aug-18 09:46 39.048824 -119.969622 180 8926ft 164kts
18-Aug-18 09:47 39.012895 -119.968814 180 7754ft 162kts
18-Aug-18 09:48 38.975087 -119.972008 192 7643ft 123kts
18-Aug-18 09:49 38.937368 -119.982409 192 6974ft 120kts
18-Aug-18 09:50 38.912224 -119.989940 195 6467ft 101kts
18-Aug-18 09:51 38.898577 -119.994804 250 6265ft 10kts
18-Aug-18 09:52 38.897604 -119.996574 127 6268ft 3kts
18-Aug-18 09:53 38.897579 -119.996467 93 6268ft 0kts
18-Aug-18 09:54 38.897579 -119.996467 93 6268ft 0kts
18-Aug-18 09:55 38.897579 -119.996467 93 6268ft 0kts
18-Aug-18 09:56 38.897579 -119.996467 93 6268ft 0kts
18-Aug-18 09:57 38.897579 -119.996467 93 6268ft 0kts
18-Aug-18 09:58 38.897579 -119.996467 93 6268ft 0kts
18-Aug-18 09:59 38.897579 -119.996467 93 6268ft 0kts
18-Aug-18 10:00 38.897579 -119.996467 93 6268ft 0kts
18-Aug-18 10:01 38.897579 -119.996467 93 6268ft 0kts
18-Aug-18 10:02 38.897579 -119.996467 93 6268ft 0kts
18-Aug-18 10:03 38.897579 -119.996467 93 6268ft 0kts
18-Aug-18 10:04 38.897579 -119.996467 93 6268ft 0kts
18-Aug-18 10:05 38.897579 -119.996467 93 6268ft 0kts

Navigation Log

Ident Type
Flight plan parsing failed, navigation log unavailable